Terminal Aerodrome Forecast
Issued by NWS

Home | Current Version | Previous Version | Text Only | Print | Product List | Glossary On
Versions: 1 2 3 4 5 6 7 8 9 10 11 12 13 14 15 16 17 18 19
000
FTUS41 KALY 221120
TAFPSF
TAF
KPSF 221120Z 2212/2312 VRB03KT P6SM OVC100
     FM221500 VRB03KT 6SM -RA BR OVC040
     FM221800 18007KT 4SM -RA BR SCT010 OVC025
     FM222300 20006KT 3SM BR VCSH OVC008=

USA.gov is the U.S. government's official web portal to all federal, state and local government web resources and services.